Time;durP1;ratioP1;P1;durP2;ratioP2;P2;SDS_P1;SDS_P2;PMS_P1;PMS_P2;Temp;Humidity;BMP_temperature;BMP_pressure;BME280_temperature;BME280_humidity;BME280_pressure;Samples;Min_cycle;Max_cycle;Signal;HPM_P1;HPM_P2
2024/01/23 00:00:08;;;;;;;79.50;71.50;;;;;;;-6.96;67.81;96034.22;5147115;27;20261;-69
2024/01/23 00:02:35;;;;;;;78.65;70.88;;;;;;;-6.99;67.56;96037.31;5181466;27;20182;-69
2024/01/23 00:05:02;;;;;;;85.13;76.63;;;;;;;-7.10;68.14;96030.81;5163110;27;20236;-69
2024/01/23 00:07:29;;;;;;;85.18;76.70;;;;;;;-7.20;68.50;96041.19;5163747;27;20219;-69
2024/01/23 00:09:56;;;;;;;85.03;76.68;;;;;;;-7.15;68.84;96040.53;5163759;27;20257;-70
2024/01/23 00:12:24;;;;;;;82.63;74.30;;;;;;;-7.09;68.18;96039.69;5163896;27;20250;-69
2024/01/23 00:14:51;;;;;;;80.45;72.55;;;;;;;-7.05;68.05;96035.50;5181531;27;20226;-69
2024/01/23 00:17:18;;;;;;;80.05;72.35;;;;;;;-7.00;68.01;96032.19;5163737;27;20213;-70
2024/01/23 00:19:46;;;;;;;81.43;73.30;;;;;;;-7.11;67.97;96031.03;5181171;27;20232;-70
2024/01/23 00:22:13;;;;;;;81.38;73.25;;;;;;;-7.07;68.31;96034.94;5181615;27;20197;-70
2024/01/23 00:24:40;;;;;;;88.45;79.43;;;;;;;-7.17;68.01;96030.03;5181454;27;20184;-70
2024/01/23 00:27:07;;;;;;;88.93;80.30;;;;;;;-7.38;67.15;96027.72;5181369;27;20235;-70
2024/01/23 00:29:35;;;;;;;81.38;73.55;;;;;;;-7.60;67.22;96025.38;5159424;27;20230;-70
2024/01/23 00:32:02;;;;;;;77.90;70.32;;;;;;;-7.76;67.63;96020.56;5160229;27;20182;-70
2024/01/23 00:34:30;;;;;;;72.68;65.55;;;;;;;-7.83;67.16;96012.56;5159911;27;20633;-70
2024/01/23 00:36:58;;;;;;;70.57;63.40;;;;;;;-7.86;67.69;96012.97;5160476;27;20243;-70
2024/01/23 00:39:25;;;;;;;70.63;63.60;;;;;;;-7.92;67.95;96008.47;5161078;27;20236;-69
2024/01/23 00:41:52;;;;;;;71.95;64.68;;;;;;;-7.84;68.51;96008.25;5159395;27;20190;-70
2024/01/23 00:44:19;;;;;;;74.50;67.07;;;;;;;-7.70;69.28;96011.63;5159596;27;20193;-70
2024/01/23 00:46:48;;;;;;;75.05;67.65;;;;;;;-7.56;69.00;96017.75;5160001;27;20195;-70
2024/01/23 00:49:15;;;;;;;78.25;70.55;;;;;;;-7.47;68.54;96004.94;5160210;27;20206;-70
2024/01/23 00:51:41;;;;;;;77.97;70.45;;;;;;;-7.40;68.05;95998.47;5159246;27;20219;-70
2024/01/23 00:54:08;;;;;;;78.22;70.47;;;;;;;-7.44;67.89;96004.47;5159039;27;20202;-70
2024/01/23 00:56:36;;;;;;;72.30;64.90;;;;;;;-7.63;66.79;96001.69;5159062;27;20589;-70
2024/01/23 00:59:03;;;;;;;73.00;65.85;;;;;;;-7.77;67.65;96001.00;5159396;27;20213;-70
2024/01/23 01:01:30;;;;;;;77.50;69.63;;;;;;;-7.75;68.24;95996.22;5159106;27;20218;-70
2024/01/23 01:03:58;;;;;;;77.50;69.68;;;;;;;-7.80;68.26;95993.38;5158319;27;20202;-70
2024/01/23 01:06:25;;;;;;;76.88;69.43;;;;;;;-7.88;68.06;95993.66;5158859;27;20237;-70
2024/01/23 01:08:52;;;;;;;75.75;68.00;;;;;;;-7.95;68.40;95995.53;5159372;27;20206;-70
2024/01/23 01:11:20;;;;;;;74.03;66.32;;;;;;;-7.97;68.13;95988.75;5159383;27;20197;-70
2024/01/23 01:13:46;;;;;;;72.18;64.88;;;;;;;-8.03;68.43;95988.53;5159876;27;20269;-69
2024/01/23 01:16:13;;;;;;;72.35;65.03;;;;;;;-8.03;69.17;95982.38;5159219;27;20538;-69
2024/01/23 01:18:41;;;;;;;72.68;65.22;;;;;;;-8.03;69.04;95990.41;5158553;27;20282;-69
2024/01/23 01:21:09;;;;;;;71.68;64.38;;;;;;;-8.09;68.49;95980.56;5159513;27;20178;-69
2024/01/23 01:23:36;;;;;;;74.07;66.70;;;;;;;-8.15;68.10;95984.91;5159577;27;20194;-70
2024/01/23 01:26:04;;;;;;;74.03;66.40;;;;;;;-8.23;68.41;95979.81;5159024;27;20216;-70
2024/01/23 01:28:32;;;;;;;72.55;65.22;;;;;;;-8.23;68.92;95975.28;5158240;27;20278;-70
2024/01/23 01:30:59;;;;;;;73.45;65.97;;;;;;;-8.14;68.75;95969.66;5159252;27;20179;-69
2024/01/23 01:33:26;;;;;;;69.68;62.75;;;;;;;-8.17;68.20;95970.94;5159217;27;20191;-70
2024/01/23 01:35:53;;;;;;;70.10;62.65;;;;;;;-8.20;68.55;95966.00;5159134;27;20657;-71
2024/01/23 01:38:23;;;;;;;68.13;60.90;;;;;;;-8.23;68.23;95972.59;5159062;27;20305;-70
2024/01/23 01:40:49;;;;;;;66.32;59.35;;;;;;;-8.30;68.28;95966.47;5158221;27;20198;-70
2024/01/23 01:43:25;;;;;;;66.57;59.50;;;;;;;-8.33;68.82;95958.84;5158659;27;20183;-70
2024/01/23 01:46:02;;;;;;;64.05;57.42;;;;;;;-8.27;68.76;95958.00;5159252;27;20194;-70
2024/01/23 01:48:29;;;;;;;64.13;57.45;;;;;;;-8.17;68.64;95962.06;5157956;27;20202;-70
2024/01/23 01:50:56;;;;;;;64.25;57.40;;;;;;;-8.10;68.25;95950.28;5158177;27;20202;-70
2024/01/23 01:53:24;;;;;;;63.38;56.58;;;;;;;-8.13;67.83;95949.88;5158602;27;20218;-70
2024/01/23 01:55:52;;;;;;;62.88;56.28;;;;;;;-8.19;67.93;95956.13;5158052;27;20225;-70
2024/01/23 01:58:20;;;;;;;63.45;56.75;;;;;;;-8.11;68.32;95954.00;5157716;27;20207;-70
2024/01/23 02:00:49;;;;;;;62.75;56.15;;;;;;;-8.09;68.28;95954.63;5158316;27;20493;-70
2024/01/23 02:03:17;;;;;;;59.90;53.50;;;;;;;-7.95;67.92;95941.97;5158307;27;20179;-70
2024/01/23 02:05:44;;;;;;;59.00;52.72;;;;;;;-8.07;66.92;95949.84;5158508;27;20250;-69
2024/01/23 02:08:11;;;;;;;56.45;50.53;;;;;;;-8.21;67.28;95944.78;5158683;27;20174;-70
2024/01/23 02:10:40;;;;;;;56.45;50.30;;;;;;;-8.33;67.40;95936.63;5158177;27;20197;-70
2024/01/23 02:13:08;;;;;;;54.42;48.60;;;;;;;-8.36;67.62;95934.38;5157549;27;20602;-69
2024/01/23 02:15:36;;;;;;;56.88;50.83;;;;;;;-8.37;67.33;95933.56;5158111;27;20485;-70
2024/01/23 02:18:03;;;;;;;56.55;50.67;;;;;;;-8.50;67.06;95933.63;5157979;27;20210;-70
2024/01/23 02:20:30;;;;;;;55.08;49.28;;;;;;;-8.58;67.29;95934.69;5157222;27;20183;-70
2024/01/23 02:22:58;;;;;;;55.80;50.10;;;;;;;-8.64;68.24;95932.91;5158663;27;20202;-70
2024/01/23 02:25:26;;;;;;;54.53;48.72;;;;;;;-8.73;67.61;95936.81;5158493;27;20179;-69
2024/01/23 02:27:54;;;;;;;52.83;47.20;;;;;;;-8.74;68.13;95927.97;5158719;27;20199;-69
2024/01/23 02:30:21;;;;;;;54.53;48.42;;;;;;;-8.69;68.20;95935.38;5160332;27;20198;-70
2024/01/23 02:32:48;;;;;;;53.88;48.28;;;;;;;-8.58;68.95;95924.00;5160553;27;20246;-70
2024/01/23 02:35:15;;;;;;;57.30;51.30;;;;;;;-8.51;68.36;95918.63;5178635;27;20202;-69
2024/01/23 02:37:42;;;;;;;63.72;57.08;;;;;;;-8.57;68.49;95917.66;5160827;27;20190;-69
2024/01/23 02:40:10;;;;;;;59.15;53.00;;;;;;;-8.51;68.22;95908.75;5160479;27;20250;-69
2024/01/23 02:42:38;;;;;;;56.65;50.65;;;;;;;-8.44;68.35;95903.38;5143037;27;20238;-69
2024/01/23 02:45:06;;;;;;;56.80;50.75;;;;;;;-8.50;68.13;95899.72;5160559;27;20189;-70
2024/01/23 02:47:33;;;;;;;53.20;47.55;;;;;;;-8.62;67.82;95895.22;5178847;27;20209;-69
2024/01/23 02:50:00;;;;;;;51.47;46.17;;;;;;;-8.74;67.91;95890.53;5142979;27;20189;-70
2024/01/23 02:52:31;;;;;;;52.22;46.92;;;;;;;-8.71;68.24;95894.66;5178327;27;20250;-70
2024/01/23 02:54:58;;;;;;;50.35;45.03;;;;;;;-8.71;68.20;95886.63;5160214;27;20193;-70
2024/01/23 02:57:25;;;;;;;52.35;46.95;;;;;;;-8.67;68.24;95887.84;5178419;27;20213;-70
2024/01/23 02:59:53;;;;;;;54.67;48.90;;;;;;;-8.75;68.14;95885.38;5178220;27;20556;-70
2024/01/23 03:02:20;;;;;;;56.00;50.28;;;;;;;-8.66;68.42;95868.09;5160675;27;20262;-69
2024/01/23 03:04:47;;;;;;;57.70;51.55;;;;;;;-8.53;68.23;95877.91;5178356;27;20182;-69
2024/01/23 03:07:14;;;;;;;58.78;52.65;;;;;;;-8.43;68.31;95872.06;5178090;27;20217;-69
2024/01/23 03:09:42;;;;;;;58.35;52.35;;;;;;;-8.37;67.95;95863.19;5159617;27;20234;-69
2024/01/23 03:12:16;;;;;;;58.75;52.67;;;;;;;-8.48;67.93;95873.53;5160149;27;20209;-69
2024/01/23 03:14:43;;;;;;;57.92;51.83;;;;;;;-8.54;68.05;95862.88;5160743;27;20204;-69
2024/01/23 03:17:13;;;;;;;58.40;52.40;;;;;;;-8.63;68.06;95864.97;5177990;27;20538;-69
2024/01/23 03:19:40;;;;;;;58.45;52.17;;;;;;;-8.69;68.30;95857.00;5177975;27;20289;-69
2024/01/23 03:22:08;;;;;;;59.03;52.90;;;;;;;-8.76;68.47;95857.84;5159950;27;20219;-69
2024/01/23 03:24:37;;;;;;;59.15;53.03;;;;;;;-8.69;68.66;95849.78;5159799;27;20200;-69
2024/01/23 03:27:05;;;;;;;59.63;53.53;;;;;;;-8.60;68.73;95845.03;5159413;27;20229;-69
2024/01/23 03:29:38;;;;;;;58.88;52.70;;;;;;;-8.52;68.95;95834.06;5177776;27;20240;-70
2024/01/23 03:32:06;;;;;;;63.78;56.97;;;;;;;-8.54;68.62;95830.78;5160384;27;20242;-70
2024/01/23 03:34:34;;;;;;;64.50;57.63;;;;;;;-8.62;68.56;95831.03;5160175;27;20197;-70
2024/01/23 03:37:02;;;;;;;60.47;54.13;;;;;;;-8.73;68.48;95824.50;5178158;27;20182;-69
2024/01/23 03:39:29;;;;;;;59.33;53.03;;;;;;;-8.78;68.80;95827.81;5159543;27;20225;-69
2024/01/23 03:41:56;;;;;;;63.35;56.88;;;;;;;-8.84;68.72;95825.19;5177572;27;20242;-69
2024/01/23 03:44:23;;;;;;;67.10;60.20;;;;;;;-8.93;68.72;95823.78;5177877;27;20186;-70
2024/01/23 03:46:50;;;;;;;68.85;61.58;;;;;;;-8.97;68.93;95823.38;5159958;27;20208;-70
2024/01/23 03:49:17;;;;;;;73.55;65.70;;;;;;;-8.93;69.12;95823.78;5177405;27;20234;-70
2024/01/23 03:51:46;;;;;;;76.47;66.88;;;;;;;-8.94;69.25;95816.78;5159739;27;20207;-70
2024/01/23 03:54:13;;;;;;;70.80;63.40;;;;;;;-8.87;69.89;95815.72;5177410;27;20608;-69
2024/01/23 03:56:41;;;;;;;64.85;58.13;;;;;;;-8.82;69.75;95807.91;5160160;27;20194;-69
2024/01/23 03:59:08;;;;;;;59.35;53.28;;;;;;;-8.87;69.56;95812.22;5177626;27;20237;-69
2024/01/23 04:01:35;;;;;;;58.75;52.72;;;;;;;-8.84;69.64;95809.97;5177196;27;20174;-69
2024/01/23 04:04:02;;;;;;;55.13;49.53;;;;;;;-8.82;69.72;95807.09;5177934;27;20245;-70
2024/01/23 04:06:29;;;;;;;57.80;51.85;;;;;;;-8.83;69.47;95808.09;5177655;27;20174;-70
2024/01/23 04:08:57;;;;;;;56.95;51.15;;;;;;;-8.89;69.37;95809.78;5159858;27;20509;-70
2024/01/23 04:11:24;;;;;;;57.17;51.10;;;;;;;-8.90;69.46;95813.47;5177559;27;20261;-70
2024/01/23 04:13:52;;;;;;;59.30;53.22;;;;;;;-8.87;69.88;95814.91;5159752;27;20222;-70
2024/01/23 04:16:18;;;;;;;59.63;53.38;;;;;;;-8.79;69.62;95812.78;5177505;27;20178;-70
2024/01/23 04:18:45;;;;;;;58.00;51.88;;;;;;;-8.71;69.66;95803.72;5159089;27;20637;-70
2024/01/23 04:21:16;;;;;;;58.25;52.10;;;;;;;-8.66;69.66;95805.75;5177768;27;20249;-70
2024/01/23 04:23:43;;;;;;;60.45;53.65;;;;;;;-8.61;69.29;95801.38;5159067;27;20197;-70
2024/01/23 04:26:13;;;;;;;57.63;50.00;;;;;;;-8.59;69.45;95803.84;5159671;27;20229;-70
2024/01/23 04:28:40;;;;;;;56.10;50.00;;;;;;;-8.61;69.15;95806.72;5155584;27;20556;-70
2024/01/23 04:31:07;;;;;;;54.60;48.78;;;;;;;-8.68;68.70;95803.28;5138540;27;20286;-70
2024/01/23 04:33:34;;;;;;;54.83;48.90;;;;;;;-8.71;69.04;95798.38;5155517;27;20191;-70
2024/01/23 04:36:02;;;;;;;55.75;49.13;;;;;;;-8.72;69.10;95802.06;5156478;27;20182;-70
2024/01/23 04:38:29;;;;;;;58.00;51.75;;;;;;;-8.69;68.77;95795.47;5155200;27;20667;-70
2024/01/23 04:40:56;;;;;;;58.15;51.33;;;;;;;-8.71;69.01;95795.72;5155509;27;20190;-70
2024/01/23 04:43:24;;;;;;;56.33;50.05;;;;;;;-8.64;68.97;95792.97;5157635;27;20239;-70
2024/01/23 04:45:51;;;;;;;56.03;50.22;;;;;;;-8.68;68.19;95802.47;5159280;27;20528;-70
2024/01/23 04:48:18;;;;;;;55.33;49.45;;;;;;;-8.74;68.38;95802.28;5160014;27;20190;-69
2024/01/23 04:50:45;;;;;;;55.58;49.75;;;;;;;-8.77;68.24;95801.91;5160276;27;20179;-70
2024/01/23 04:53:12;;;;;;;52.28;46.67;;;;;;;-8.83;68.31;95800.88;5160065;27;20196;-69
2024/01/23 04:55:39;;;;;;;48.85;43.72;;;;;;;-8.76;68.21;95790.97;5159947;27;20190;-69
2024/01/23 04:58:06;;;;;;;49.63;44.45;;;;;;;-8.70;67.72;95805.34;5159788;27;20258;-69
2024/01/23 05:00:35;;;;;;;50.05;44.97;;;;;;;-8.76;67.31;95803.53;5159812;27;20202;-72
2024/01/23 05:03:03;;;;;;;49.85;44.63;;;;;;;-8.79;67.31;95799.44;5158553;27;20198;-72
2024/01/23 05:05:31;;;;;;;48.60;43.75;;;;;;;-8.79;67.18;95803.97;5159641;27;20230;-72
2024/01/23 05:07:58;;;;;;;47.55;42.67;;;;;;;-8.78;67.33;95803.75;5160271;27;20214;-72
2024/01/23 05:10:25;;;;;;;48.03;43.05;;;;;;;-8.76;67.31;95808.88;5158876;27;20194;-71
2024/01/23 05:12:52;;;;;;;47.65;42.85;;;;;;;-8.74;66.89;95801.47;5158739;27;20243;-72
2024/01/23 05:15:19;;;;;;;47.03;42.42;;;;;;;-8.75;66.67;95802.50;5159029;27;20198;-71
2024/01/23 05:17:47;;;;;;;47.88;43.10;;;;;;;-8.81;65.87;95806.84;5159206;27;20234;-71
2024/01/23 05:20:15;;;;;;;46.90;42.35;;;;;;;-8.91;65.58;95803.81;5159658;27;20292;-71
2024/01/23 05:22:42;;;;;;;46.67;42.17;;;;;;;-9.03;65.63;95805.53;5158965;27;20198;-71
2024/01/23 05:25:10;;;;;;;47.35;42.65;;;;;;;-9.04;66.07;95799.38;5159440;27;20199;-71
2024/01/23 05:27:37;;;;;;;46.88;42.33;;;;;;;-9.03;66.24;95795.66;5158147;27;20243;-71
2024/01/23 05:30:07;;;;;;;46.78;42.20;;;;;;;-9.01;66.13;95796.25;5179330;27;20240;-72
2024/01/23 05:32:34;;;;;;;49.92;45.17;;;;;;;-9.03;65.92;95794.84;5180093;27;20214;-72
2024/01/23 05:35:04;;;;;;;47.58;42.97;;;;;;;-9.00;66.12;95795.25;5180144;27;20242;-72
2024/01/23 05:37:31;;;;;;;47.83;43.33;;;;;;;-8.98;66.06;95792.34;5161793;27;20197;-72
2024/01/23 05:39:58;;;;;;;45.50;41.00;;;;;;;-9.03;65.91;95782.28;5161802;27;20599;-72
2024/01/23 05:42:25;;;;;;;48.17;43.72;;;;;;;-9.12;65.45;95775.53;5161891;27;20194;-72
2024/01/23 05:44:52;;;;;;;46.97;42.50;;;;;;;-9.25;65.56;95778.28;5161336;27;20234;-72
2024/01/23 05:47:19;;;;;;;50.72;45.83;;;;;;;-9.26;65.97;95771.28;5179842;27;20222;-71
2024/01/23 05:49:46;;;;;;;47.70;43.00;;;;;;;-9.25;66.05;95778.28;5162040;27;20201;-71
2024/01/23 05:52:15;;;;;;;47.45;42.85;;;;;;;-9.24;66.34;95769.22;5179352;27;20202;-72
2024/01/23 05:54:44;;;;;;;49.70;44.90;;;;;;;-9.23;66.20;95770.88;5161135;27;20198;-72
2024/01/23 05:57:12;;;;;;;48.75;44.15;;;;;;;-9.37;66.20;95762.06;5179623;27;20190;-72
2024/01/23 05:59:40;;;;;;;50.53;45.72;;;;;;;-9.44;66.36;95771.97;5179319;27;20198;-71
2024/01/23 06:02:07;;;;;;;54.97;49.72;;;;;;;-9.41;67.15;95765.38;5160882;27;20609;-71
2024/01/23 06:04:34;;;;;;;51.20;46.30;;;;;;;-9.44;66.77;95777.31;5161220;27;20588;-72
2024/01/23 06:07:02;;;;;;;54.10;48.75;;;;;;;-9.39;66.86;95771.34;5179201;27;20704;-69
2024/01/23 06:09:31;;;;;;;55.60;50.33;;;;;;;-9.31;67.02;95763.91;5179104;27;20193;-71
2024/01/23 06:11:58;;;;;;;56.08;50.58;;;;;;;-9.27;66.94;95773.13;5179079;27;20203;-71
2024/01/23 06:14:25;;;;;;;49.40;44.83;;;;;;;-9.18;67.19;95772.91;5179297;27;20178;-71
2024/01/23 06:16:51;;;;;;;49.78;44.88;;;;;;;-9.12;67.02;95780.06;5179297;27;20257;-72
2024/01/23 06:19:18;;;;;;;50.55;45.75;;;;;;;-9.02;67.17;95773.22;5179142;27;20237;-72
2024/01/23 06:21:45;;;;;;;63.40;57.55;;;;;;;-8.91;66.91;95781.63;5160856;27;20201;-71
2024/01/23 06:24:13;;;;;;;64.47;58.38;;;;;;;-8.84;66.68;95791.25;5161138;27;20193;-72
2024/01/23 06:26:41;;;;;;;66.65;60.15;;;;;;;-8.85;65.47;95810.19;5160800;27;20211;-72
2024/01/23 06:29:08;;;;;;;67.65;61.20;;;;;;;-8.89;65.43;95804.44;5179018;27;20225;-74
2024/01/23 06:31:35;;;;;;;65.95;59.78;;;;;;;-8.91;65.13;95811.03;5179003;27;20174;-71
2024/01/23 06:34:04;;;;;;;57.25;51.72;;;;;;;-8.94;65.45;95816.78;5160723;27;20262;-71
2024/01/23 06:36:31;;;;;;;49.60;44.85;;;;;;;-8.91;65.39;95824.38;5178980;27;20324;-71
2024/01/23 06:38:58;;;;;;;49.40;44.67;;;;;;;-8.87;65.30;95818.41;5179184;27;20196;-71
2024/01/23 06:41:25;;;;;;;49.30;44.35;;;;;;;-8.88;65.42;95816.75;5178797;27;20200;-71
2024/01/23 06:43:53;;;;;;;50.63;45.72;;;;;;;-8.90;65.26;95823.34;5178429;27;20182;-71
2024/01/23 06:46:20;;;;;;;50.33;45.63;;;;;;;-8.92;65.20;95823.56;5178356;27;20609;-71
2024/01/23 06:48:48;;;;;;;50.17;45.20;;;;;;;-8.91;65.20;95825.22;5178361;27;20190;-71
2024/01/23 06:51:14;;;;;;;52.53;47.42;;;;;;;-8.88;65.77;95821.28;5160240;27;20197;-71
2024/01/23 06:53:41;;;;;;;53.05;47.78;;;;;;;-8.91;66.04;95822.53;5178219;27;20178;-71
2024/01/23 06:56:09;;;;;;;53.33;48.03;;;;;;;-8.87;66.20;95823.75;5178481;27;20482;-71
2024/01/23 06:58:36;;;;;;;49.55;44.80;;;;;;;-8.87;65.96;95820.25;5160373;27;20257;-71
2024/01/23 07:01:05;;;;;;;50.67;45.90;;;;;;;-8.76;66.17;95809.69;5178599;27;20277;-71
2024/01/23 07:03:32;;;;;;;46.33;41.85;;;;;;;-8.76;65.70;95800.88;5160602;27;20182;-71
2024/01/23 07:05:59;;;;;;;48.72;43.92;;;;;;;-8.82;65.66;95794.53;5177476;27;20178;-71
2024/01/23 07:08:26;;;;;;;53.10;47.80;;;;;;;-8.92;65.77;95796.84;5178251;27;20248;-71
2024/01/23 07:10:53;;;;;;;52.58;47.38;;;;;;;-8.91;66.12;95797.66;5178597;27;20254;-71
2024/01/23 07:13:20;;;;;;;52.63;47.47;;;;;;;-8.84;66.39;95787.75;5177969;27;20227;-71
2024/01/23 07:15:46;;;;;;;51.30;46.20;;;;;;;-8.72;66.90;95783.34;5160708;27;20288;-71
2024/01/23 07:18:15;;;;;;;49.60;44.80;;;;;;;-8.56;67.30;95768.66;5159999;27;20257;-70
2024/01/23 07:20:42;;;;;;;51.13;46.03;;;;;;;-8.48;67.19;95771.88;5177997;27;20205;-70
2024/01/23 07:23:09;;;;;;;51.97;46.88;;;;;;;-8.35;66.95;95778.13;5159657;27;20319;-70
2024/01/23 07:25:36;;;;;;;52.38;47.22;;;;;;;-8.28;67.39;95792.28;5160337;27;20250;-70
2024/01/23 07:28:03;;;;;;;58.10;52.28;;;;;;;-8.13;68.35;95782.09;5177508;27;20203;-70
2024/01/23 07:30:31;;;;;;;58.15;52.42;;;;;;;-7.86;67.56;95796.06;5177981;27;20174;-70
2024/01/23 07:32:57;;;;;;;59.90;53.90;;;;;;;-7.71;67.31;95803.75;5177917;27;20178;-68
2024/01/23 07:35:26;;;;;;;58.85;53.13;;;;;;;-7.64;67.05;95809.03;5159610;27;20247;-71
2024/01/23 07:37:53;;;;;;;60.60;54.53;;;;;;;-7.48;67.17;95802.28;5177921;27;20186;-71
2024/01/23 07:40:20;;;;;;;61.33;55.33;;;;;;;-7.36;67.15;95801.34;5177802;27;20198;-71
2024/01/23 07:42:47;;;;;;;61.92;55.58;;;;;;;-7.24;67.19;95792.56;5159555;27;20190;-71
2024/01/23 07:45:15;;;;;;;63.92;57.78;;;;;;;-7.09;66.59;95799.16;5177815;27;20198;-71
2024/01/23 07:47:41;;;;;;;66.07;59.65;;;;;;;-6.90;67.16;95800.00;5159811;27;20245;-71
2024/01/23 07:50:11;;;;;;;66.78;60.00;;;;;;;-6.72;66.96;95799.09;5159513;27;20225;-71
2024/01/23 07:52:40;;;;;;;70.20;63.13;;;;;;;-6.58;66.00;95789.84;5159081;27;20301;-71
2024/01/23 07:55:08;;;;;;;76.50;69.30;;;;;;;-6.42;65.69;95801.00;5177393;27;20673;-70
2024/01/23 07:57:35;;;;;;;81.95;73.95;;;;;;;-6.35;65.75;95793.66;5159383;27;20193;-71
2024/01/23 08:00:03;;;;;;;87.43;78.93;;;;;;;-6.24;66.31;95800.13;5159798;27;20388;-71
2024/01/23 08:02:30;;;;;;;100.68;91.50;;;;;;;-6.09;65.47;95809.38;5177468;27;20621;-70
2024/01/23 08:04:57;;;;;;;112.05;101.65;;;;;;;-5.96;65.50;95799.44;5159244;27;20677;-70
2024/01/23 08:07:24;;;;;;;110.07;99.82;;;;;;;-5.91;65.56;95788.81;5177285;27;20218;-70
2024/01/23 08:09:53;;;;;;;115.85;105.03;;;;;;;-5.74;65.26;95797.00;5159344;27;20225;-70
2024/01/23 08:12:21;;;;;;;117.45;106.65;;;;;;;-5.60;65.20;95788.47;5159181;27;20205;-70
2024/01/23 08:14:48;;;;;;;118.38;107.05;;;;;;;-5.44;64.64;95791.50;5159195;27;20194;-70
2024/01/23 08:17:15;;;;;;;113.10;102.53;;;;;;;-5.23;64.79;95790.91;5177813;27;20193;-70
2024/01/23 08:19:42;;;;;;;106.70;96.50;;;;;;;-5.15;64.50;95787.03;5180993;27;20292;-70
2024/01/23 08:22:10;;;;;;;101.63;92.13;;;;;;;-5.02;64.19;95794.00;5163159;27;20193;-71
2024/01/23 08:24:37;;;;;;;93.63;85.05;;;;;;;-4.95;63.97;95787.44;5181269;27;20217;-70
2024/01/23 08:27:06;;;;;;;95.10;86.72;;;;;;;-4.83;64.28;95792.78;5181154;27;20510;-70
2024/01/23 08:29:33;;;;;;;93.38;84.78;;;;;;;-4.66;63.75;95788.28;5162589;27;20281;-70
2024/01/23 08:32:01;;;;;;;93.20;84.38;;;;;;;-4.53;63.95;95783.69;5181329;27;20362;-70
2024/01/23 08:34:29;;;;;;;85.20;77.20;;;;;;;-4.37;63.01;95782.91;5162659;27;20197;-70
2024/01/23 08:36:56;;;;;;;84.38;76.50;;;;;;;-4.21;63.51;95787.53;5162669;27;20246;-70
2024/01/23 08:39:25;;;;;;;82.15;74.25;;;;;;;-3.97;62.79;95780.09;5180887;27;20225;-70
2024/01/23 08:41:53;;;;;;;79.55;71.90;;;;;;;-3.83;62.07;95785.19;5162617;27;20202;-70
2024/01/23 08:44:23;;;;;;;82.82;74.90;;;;;;;-3.70;62.08;95787.56;5180632;27;20268;-71
2024/01/23 08:46:50;;;;;;;80.63;72.93;;;;;;;-3.63;61.64;95794.41;5180940;27;20182;-70
2024/01/23 08:49:17;;;;;;;78.20;70.43;;;;;;;-3.54;61.97;95788.59;5181160;27;20186;-70
2024/01/23 08:51:46;;;;;;;73.93;66.63;;;;;;;-3.35;61.02;95783.75;5180965;27;20182;-70
2024/01/23 08:54:18;;;;;;;72.53;65.32;;;;;;;-3.20;60.94;95787.47;5162267;27;20202;-70
2024/01/23 08:56:46;;;;;;;75.32;67.90;;;;;;;-3.11;59.93;95782.50;5162568;27;20201;-70
2024/01/23 08:59:13;;;;;;;76.75;69.35;;;;;;;-3.02;59.85;95780.97;5180537;27;20198;-70
2024/01/23 09:01:41;;;;;;;76.70;69.10;;;;;;;-2.91;60.51;95777.34;5180701;27;20253;-71
2024/01/23 09:04:10;;;;;;;77.97;70.28;;;;;;;-2.77;59.88;95774.28;5181022;27;20253;-71
2024/01/23 09:06:36;;;;;;;75.78;68.25;;;;;;;-2.50;60.45;95767.03;5180407;27;20198;-70
2024/01/23 09:09:04;;;;;;;77.95;70.50;;;;;;;-2.26;60.42;95764.03;5161921;27;20202;-70
2024/01/23 09:11:31;;;;;;;79.13;71.55;;;;;;;-2.05;60.20;95762.34;5162481;27;20607;-69
2024/01/23 09:13:58;;;;;;;83.30;75.10;;;;;;;-1.86;60.31;95751.97;5161900;27;20665;-69
2024/01/23 09:16:25;;;;;;;89.53;80.55;;;;;;;-1.70;59.40;95748.31;5161809;27;20205;-69
2024/01/23 09:18:53;;;;;;;85.25;76.78;;;;;;;-1.60;58.92;95748.38;5162188;27;20198;-69
2024/01/23 09:21:22;;;;;;;88.65;79.60;;;;;;;-1.38;58.89;95750.97;5162113;27;20249;-69
2024/01/23 09:23:49;;;;;;;99.35;89.45;;;;;;;-1.30;58.41;95750.47;5161933;27;20204;-69
2024/01/23 09:26:16;;;;;;;99.53;89.50;;;;;;;-1.25;57.75;95750.50;5180553;27;20186;-69
2024/01/23 09:28:43;;;;;;;100.18;89.97;;;;;;;-1.14;57.37;95742.44;5179330;27;20281;-69
2024/01/23 09:31:10;;;;;;;118.35;106.38;;;;;;;-1.07;57.62;95738.41;5180088;27;20277;-69
2024/01/23 09:33:37;;;;;;;117.10;104.80;;;;;;;-0.88;57.73;95741.50;5161491;27;20189;-69
2024/01/23 09:36:08;;;;;;;116.53;104.55;;;;;;;-0.76;57.51;95725.03;5179995;27;20178;-69
2024/01/23 09:38:36;;;;;;;120.78;108.00;;;;;;;-0.69;56.83;95730.19;5179663;27;20178;-69
2024/01/23 09:41:11;;;;;;;105.90;95.22;;;;;;;-0.61;57.06;95727.78;5162537;27;20258;-69
2024/01/23 09:43:39;;;;;;;97.75;88.10;;;;;;;-0.44;56.90;95722.13;5179540;27;20508;-69
2024/01/23 09:46:11;;;;;;;94.50;85.20;;;;;;;-0.44;55.83;95715.91;5179848;27;20189;-69
2024/01/23 09:48:38;;;;;;;96.35;86.75;;;;;;;-0.37;56.29;95719.97;5161700;27;20651;-69
2024/01/23 09:51:12;;;;;;;95.43;86.28;;;;;;;-0.13;56.17;95712.16;5179561;27;20260;-69
2024/01/23 09:53:41;;;;;;;93.03;83.85;;;;;;;0.03;55.57;95715.69;5180341;27;20174;-69
2024/01/23 09:56:08;;;;;;;99.03;88.82;;;;;;;0.17;55.33;95710.56;5179597;27;20316;-69
2024/01/23 09:58:36;;;;;;;96.82;87.05;;;;;;;0.27;54.43;95707.84;5179670;27;20186;-69
2024/01/23 10:01:03;;;;;;;97.95;88.00;;;;;;;0.46;53.89;95703.47;5179166;27;20210;-69
2024/01/23 10:03:33;;;;;;;100.35;90.22;;;;;;;0.68;53.93;95695.00;5162065;27;20246;-69
2024/01/23 10:06:01;;;;;;;97.30;87.10;;;;;;;0.73;52.81;95696.94;5161926;27;20194;-69
2024/01/23 10:08:29;;;;;;;100.65;90.05;;;;;;;0.79;53.30;95689.56;5179493;27;20242;-69
2024/01/23 10:11:00;;;;;;;99.25;89.13;;;;;;;1.00;52.79;95693.84;5161618;27;20221;-69
2024/01/23 10:13:27;;;;;;;101.72;91.65;;;;;;;1.20;52.26;95685.63;5179032;27;20182;-69
2024/01/23 10:15:57;;;;;;;99.20;88.78;;;;;;;1.52;51.81;95678.94;5179589;27;20194;-69
2024/01/23 10:18:26;;;;;;;100.47;90.38;;;;;;;1.69;50.59;95675.84;5179289;27;20185;-69
2024/01/23 10:20:53;;;;;;;104.80;94.10;;;;;;;1.77;49.24;95671.72;5179149;27;20233;-69
2024/01/23 10:23:20;;;;;;;104.10;92.80;;;;;;;1.77;49.07;95660.84;5160966;27;20197;-69
2024/01/23 10:25:49;;;;;;;104.90;93.72;;;;;;;1.90;48.56;95655.56;5160923;27;20214;-69
2024/01/23 10:28:16;;;;;;;102.40;91.97;;;;;;;2.06;48.68;95650.00;5178900;27;20237;-69
2024/01/23 10:30:45;;;;;;;102.43;91.70;;;;;;;2.07;47.97;95659.78;5161495;27;20284;-69
2024/01/23 10:33:12;;;;;;;108.65;97.40;;;;;;;2.33;48.16;95655.75;5161099;27;20190;-69
2024/01/23 10:35:39;;;;;;;112.82;101.50;;;;;;;2.32;48.31;95661.47;5179127;27;20246;-69
2024/01/23 10:38:07;;;;;;;109.80;98.32;;;;;;;2.37;47.83;95654.09;5160453;27;20288;-69
2024/01/23 10:40:33;;;;;;;113.68;102.13;;;;;;;2.41;47.45;95646.97;5159513;27;20265;-69
2024/01/23 10:43:02;;;;;;;112.82;101.40;;;;;;;2.38;47.07;95647.53;5161159;27;20194;-69
2024/01/23 10:45:31;;;;;;;111.32;99.93;;;;;;;2.49;47.44;95642.81;5178391;27;20645;-69
2024/01/23 10:48:00;;;;;;;111.03;100.07;;;;;;;2.58;47.64;95643.00;5178274;27;20608;-69
2024/01/23 10:50:29;;;;;;;112.28;100.47;;;;;;;2.82;46.46;95641.09;5160633;27;20488;-69
2024/01/23 10:53:01;;;;;;;109.72;98.50;;;;;;;2.99;46.69;95639.81;5178552;27;20190;-69
2024/01/23 10:55:30;;;;;;;112.68;101.05;;;;;;;3.05;45.96;95628.56;5160809;27;20189;-69
2024/01/23 10:57:57;;;;;;;107.93;96.28;;;;;;;3.20;46.81;95615.88;5159915;27;20617;-69
2024/01/23 11:00:26;;;;;;;110.07;98.55;;;;;;;3.34;45.72;95609.38;5178383;27;20215;-69
2024/01/23 11:02:54;;;;;;;106.45;95.32;;;;;;;3.46;45.09;95608.13;5178395;27;20178;-70
2024/01/23 11:05:27;;;;;;;102.03;91.93;;;;;;;3.48;44.00;95612.19;5178666;27;20182;-69
2024/01/23 11:07:57;;;;;;;102.03;91.82;;;;;;;3.65;44.36;95594.50;5178013;27;20232;-69
2024/01/23 11:10:30;;;;;;;100.78;90.72;;;;;;;3.73;44.75;95593.81;5177981;27;20224;-69
2024/01/23 11:13:04;;;;;;;102.00;91.13;;;;;;;3.89;44.67;95597.13;5177907;27;20186;-69
2024/01/23 11:15:32;;;;;;;108.15;97.35;;;;;;;3.93;43.95;95598.16;5178537;27;20214;-69
2024/01/23 11:18:22;;;;;;;111.43;100.18;;;;;;;4.12;44.04;95593.47;5177864;27;20190;-69